Airfield :
LOGIN :

Register | Disclaimer

   EN    FR    IT 

 










Legend :    VFR   Marginal VFR   IFR   Intensive IFR   Very Intensive IFR
Visi :
Ceiling :
>= 8 km
>= 3000ft
5 to 8 km
1000 to 3000 ft
1500m to 5 km
500 to 1000 ft
800 to 1500m
200 to 500 ft
< 800m
< 200 ft
Symbols :   Thunderstorms  Fog  Heavy snow  Heavy precipitations  Wind > 20 kt
SIGMETs :     Misc.  Thunderstorms  Icing  Turbulence  Mountain Waves  Volcanic Ashes






- Airport Elevation : 353 ft
- IATA code : LIN


LIML - Milano Linate

CURRENT METAR :
  • 130520Z 05003KT 350V100 9999 SCT080 21/13 Q1021 NOSIG

EXPIRED METARs :
  • 130450Z AUTO 12007KT 9999 FEW110/// 20/12 Q1021
  • 130420Z AUTO 09005KT 9999 SCT084/// 20/13 Q1021
  • 130350Z AUTO 10005KT 9999 NCD 21/13 Q1021
  • 130320Z AUTO 06004KT 9999 NCD 20/12 Q1021
  • 130250Z AUTO 06003KT 9999 NCD 20/12 Q1021
  • 130220Z AUTO 11004KT 9999 NCD 21/12 Q1021

TAF TAF LIML
Valid from the 13 at 00:00 until the 14 at 00:00 UTC


122300Z 1300/1324 10008KT CAVOK



MET'MAP, your aeronautical weather chart ! - Copyright ORBIFLY December 2007 - Disclaimer

ORBIFLY MET'MAP TEAM :

Programming & Development : Alexandra Zaïnal
Concept & original design : Baudouin d'Aumeries
Assistance for programming : Marc-Olivier Méhu
Technical & hardware support : Manuel Goepfert

Contact : metmap@orbifly.com




SOURCES & CREDITS :

   NOAA